Forsyth, Illinois
Current Conditions -  °F | °C
As of 11:54 PM on Saturday 22 Nov 2014 (Local Time) from KDEC Reporting Station
Scattered Clouds Scattered Clouds  
Wind Chill: 50°   Ceiling: Unl
Heat Index: 50°   Visibility: 10mi
Dew Point: 46°   Wind: 9mph
Humidity: 86%   Direction: 170°S
Pressure: 29.88"   Gusts: NA
Location:  39.93°N, 88.95°W
Report Text: KDEC 230554Z 17008KT 10SM SCT050 SCT060 10/08 A2988 RMK AO2 RAE19 SLP120 P0000 60016 T01000078 10122 20100 401440022 58013
Loading
Personal Weather Stations






























Interactive Weather Map New forecast layout! Learn more

10-Day Weather Forecast

Advertisements
Track Severe Weather on mobile